sensor_id;sensor_type;location;lat;lon;timestamp;temperature;humidity
39045;DHT22;52192;52.002;5.956;2022-11-20T00:01:18;1.30;66.00
39045;DHT22;52192;52.002;5.956;2022-11-20T00:03:44;1.30;66.10
39045;DHT22;52192;52.002;5.956;2022-11-20T00:06:12;1.30;66.00
39045;DHT22;52192;52.002;5.956;2022-11-20T00:08:38;1.20;66.00
39045;DHT22;52192;52.002;5.956;2022-11-20T00:11:30;1.20;66.10
39045;DHT22;52192;52.002;5.956;2022-11-20T00:13:58;1.20;66.10
39045;DHT22;52192;52.002;5.956;2022-11-20T00:16:26;1.20;66.40
39045;DHT22;52192;52.002;5.956;2022-11-20T00:18:53;1.10;66.50
39045;DHT22;52192;52.002;5.956;2022-11-20T00:21:24;1.10;66.60
39045;DHT22;52192;52.002;5.956;2022-11-20T00:23:51;1.10;66.60
39045;DHT22;52192;52.002;5.956;2022-11-20T00:26:19;1.10;66.70
39045;DHT22;52192;52.002;5.956;2022-11-20T00:28:52;1.00;66.80
39045;DHT22;52192;52.002;5.956;2022-11-20T00:31:18;1.00;66.80
39045;DHT22;52192;52.002;5.956;2022-11-20T00:33:44;1.00;66.80
39045;DHT22;52192;52.002;5.956;2022-11-20T00:36:16;1.00;66.80
39045;DHT22;52192;52.002;5.956;2022-11-20T00:38:43;1.00;66.90
39045;DHT22;52192;52.002;5.956;2022-11-20T00:41:10;0.90;67.10
39045;DHT22;52192;52.002;5.956;2022-11-20T00:43:36;0.90;67.20
39045;DHT22;52192;52.002;5.956;2022-11-20T00:46:08;0.90;67.00
39045;DHT22;52192;52.002;5.956;2022-11-20T00:48:34;0.90;67.00
39045;DHT22;52192;52.002;5.956;2022-11-20T00:51:00;0.80;66.90
39045;DHT22;52192;52.002;5.956;2022-11-20T00:53:26;0.90;67.00
39045;DHT22;52192;52.002;5.956;2022-11-20T00:56:00;0.80;67.20
39045;DHT22;52192;52.002;5.956;2022-11-20T00:58:30;0.90;67.30
39045;DHT22;52192;52.002;5.956;2022-11-20T01:01:08;0.80;67.40
39045;DHT22;52192;52.002;5.956;2022-11-20T01:03:39;0.80;67.50
39045;DHT22;52192;52.002;5.956;2022-11-20T01:06:10;0.80;67.60
39045;DHT22;52192;52.002;5.956;2022-11-20T01:08:37;0.70;67.50
39045;DHT22;52192;52.002;5.956;2022-11-20T01:11:06;0.70;67.70
39045;DHT22;52192;52.002;5.956;2022-11-20T01:13:33;0.70;67.70
39045;DHT22;52192;52.002;5.956;2022-11-20T01:16:16;0.70;67.60
39045;DHT22;52192;52.002;5.956;2022-11-20T01:18:44;0.60;67.60
39045;DHT22;52192;52.002;5.956;2022-11-20T01:21:19;0.60;67.70
39045;DHT22;52192;52.002;5.956;2022-11-20T01:23:46;0.60;67.80
39045;DHT22;52192;52.002;5.956;2022-11-20T01:26:17;0.60;67.80
39045;DHT22;52192;52.002;5.956;2022-11-20T01:28:44;0.60;67.80
39045;DHT22;52192;52.002;5.956;2022-11-20T01:31:24;0.60;68.00
39045;DHT22;52192;52.002;5.956;2022-11-20T01:33:52;0.60;68.00
39045;DHT22;52192;52.002;5.956;2022-11-20T01:36:19;0.60;68.10
39045;DHT22;52192;52.002;5.956;2022-11-20T01:38:46;0.50;68.20
39045;DHT22;52192;52.002;5.956;2022-11-20T01:41:14;0.50;68.20
39045;DHT22;52192;52.002;5.956;2022-11-20T01:44:00;0.50;68.10
39045;DHT22;52192;52.002;5.956;2022-11-20T01:46:27;0.40;68.20
39045;DHT22;52192;52.002;5.956;2022-11-20T01:49:19;0.40;68.20
39045;DHT22;52192;52.002;5.956;2022-11-20T01:52:05;0.50;68.20
39045;DHT22;52192;52.002;5.956;2022-11-20T01:54:42;0.40;68.10
39045;DHT22;52192;52.002;5.956;2022-11-20T01:57:10;0.40;68.30
39045;DHT22;52192;52.002;5.956;2022-11-20T01:59:44;0.40;68.20
39045;DHT22;52192;52.002;5.956;2022-11-20T02:02:11;0.40;68.20
39045;DHT22;52192;52.002;5.956;2022-11-20T02:04:37;0.40;68.90
39045;DHT22;52192;52.002;5.956;2022-11-20T02:07:04;0.40;68.20
39045;DHT22;52192;52.002;5.956;2022-11-20T02:09:30;0.30;68.20
39045;DHT22;52192;52.002;5.956;2022-11-20T02:11:56;0.40;68.40
39045;DHT22;52192;52.002;5.956;2022-11-20T02:14:23;0.30;68.40
39045;DHT22;52192;52.002;5.956;2022-11-20T02:16:50;0.30;68.40
39045;DHT22;52192;52.002;5.956;2022-11-20T02:19:30;0.30;68.30
39045;DHT22;52192;52.002;5.956;2022-11-20T02:22:05;0.40;68.30
39045;DHT22;52192;52.002;5.956;2022-11-20T02:24:33;0.30;68.20
39045;DHT22;52192;52.002;5.956;2022-11-20T02:27:06;0.30;68.50
39045;DHT22;52192;52.002;5.956;2022-11-20T02:29:49;0.30;68.50
39045;DHT22;52192;52.002;5.956;2022-11-20T02:32:25;0.20;68.70
39045;DHT22;52192;52.002;5.956;2022-11-20T02:34:52;0.20;68.70
39045;DHT22;52192;52.002;5.956;2022-11-20T02:37:18;0.20;68.80
39045;DHT22;52192;52.002;5.956;2022-11-20T02:39:46;0.20;69.10
39045;DHT22;52192;52.002;5.956;2022-11-20T02:42:13;0.20;69.10
39045;DHT22;52192;52.002;5.956;2022-11-20T02:44:39;0.10;68.90
39045;DHT22;52192;52.002;5.956;2022-11-20T02:47:04;0.10;69.10
39045;DHT22;52192;52.002;5.956;2022-11-20T02:49:30;0.10;69.10
39045;DHT22;52192;52.002;5.956;2022-11-20T02:51:56;0.10;69.00
39045;DHT22;52192;52.002;5.956;2022-11-20T02:54:22;0.00;69.00
39045;DHT22;52192;52.002;5.956;2022-11-20T02:56:48;0.10;69.10
39045;DHT22;52192;52.002;5.956;2022-11-20T02:59:15;0.00;69.00
39045;DHT22;52192;52.002;5.956;2022-11-20T03:01:40;0.00;69.10
39045;DHT22;52192;52.002;5.956;2022-11-20T03:04:06;0.00;69.10
39045;DHT22;52192;52.002;5.956;2022-11-20T03:06:32;-0.10;69.00
39045;DHT22;52192;52.002;5.956;2022-11-20T03:08:57;-0.10;68.90
39045;DHT22;52192;52.002;5.956;2022-11-20T03:11:23;-0.10;69.10
39045;DHT22;52192;52.002;5.956;2022-11-20T03:13:49;-0.10;69.20
39045;DHT22;52192;52.002;5.956;2022-11-20T03:16:20;-0.20;69.10
39045;DHT22;52192;52.002;5.956;2022-11-20T03:18:47;-0.20;69.20
39045;DHT22;52192;52.002;5.956;2022-11-20T03:21:14;-0.20;69.20
39045;DHT22;52192;52.002;5.956;2022-11-20T03:23:40;-0.20;69.30
39045;DHT22;52192;52.002;5.956;2022-11-20T03:28:41;-0.20;69.30
39045;DHT22;52192;52.002;5.956;2022-11-20T03:31:10;-0.20;69.10
39045;DHT22;52192;52.002;5.956;2022-11-20T03:33:36;-0.20;69.10
39045;DHT22;52192;52.002;5.956;2022-11-20T03:36:06;-0.30;69.20
39045;DHT22;52192;52.002;5.956;2022-11-20T03:38:33;-0.30;69.20
39045;DHT22;52192;52.002;5.956;2022-11-20T03:41:04;-0.30;69.10
39045;DHT22;52192;52.002;5.956;2022-11-20T03:43:30;-0.30;69.20
39045;DHT22;52192;52.002;5.956;2022-11-20T03:45:56;-0.30;69.40
39045;DHT22;52192;52.002;5.956;2022-11-20T03:48:22;-0.30;69.40
39045;DHT22;52192;52.002;5.956;2022-11-20T03:50:48;-0.30;69.50
39045;DHT22;52192;52.002;5.956;2022-11-20T03:53:15;-0.40;69.40
39045;DHT22;52192;52.002;5.956;2022-11-20T03:55:41;-0.30;69.50
39045;DHT22;52192;52.002;5.956;2022-11-20T03:58:07;-0.40;69.70
39045;DHT22;52192;52.002;5.956;2022-11-20T04:00:33;-0.40;69.70
39045;DHT22;52192;52.002;5.956;2022-11-20T04:02:59;-0.40;69.70
39045;DHT22;52192;52.002;5.956;2022-11-20T04:05:25;-0.40;69.70
39045;DHT22;52192;52.002;5.956;2022-11-20T04:07:51;-0.40;69.80
39045;DHT22;52192;52.002;5.956;2022-11-20T04:10:16;-0.50;69.70
39045;DHT22;52192;52.002;5.956;2022-11-20T04:12:42;-0.40;69.70
39045;DHT22;52192;52.002;5.956;2022-11-20T04:15:08;-0.50;69.50
39045;DHT22;52192;52.002;5.956;2022-11-20T04:17:34;-0.50;69.70
39045;DHT22;52192;52.002;5.956;2022-11-20T04:20:00;-0.50;69.70
39045;DHT22;52192;52.002;5.956;2022-11-20T04:22:26;-0.50;69.60
39045;DHT22;52192;52.002;5.956;2022-11-20T04:24:51;-0.50;69.80
39045;DHT22;52192;52.002;5.956;2022-11-20T04:27:17;-0.50;70.30
39045;DHT22;52192;52.002;5.956;2022-11-20T04:29:43;-0.50;69.70
39045;DHT22;52192;52.002;5.956;2022-11-20T04:32:09;-0.60;69.70
39045;DHT22;52192;52.002;5.956;2022-11-20T04:34:34;-0.60;69.80
39045;DHT22;52192;52.002;5.956;2022-11-20T04:37:00;-0.60;69.80
39045;DHT22;52192;52.002;5.956;2022-11-20T04:39:27;-0.60;69.70
39045;DHT22;52192;52.002;5.956;2022-11-20T04:41:52;-0.60;69.80
39045;DHT22;52192;52.002;5.956;2022-11-20T04:44:38;-0.60;69.90
39045;DHT22;52192;52.002;5.956;2022-11-20T04:47:04;-0.70;69.70
39045;DHT22;52192;52.002;5.956;2022-11-20T04:49:30;-0.70;69.60
39045;DHT22;52192;52.002;5.956;2022-11-20T04:51:57;-0.70;69.50
39045;DHT22;52192;52.002;5.956;2022-11-20T04:54:22;-0.70;69.70
39045;DHT22;52192;52.002;5.956;2022-11-20T04:56:48;-0.70;69.80
39045;DHT22;52192;52.002;5.956;2022-11-20T04:59:14;-0.70;70.40
39045;DHT22;52192;52.002;5.956;2022-11-20T05:01:40;-0.70;70.00
39045;DHT22;52192;52.002;5.956;2022-11-20T05:04:05;-0.80;70.10
39045;DHT22;52192;52.002;5.956;2022-11-20T05:06:31;-0.80;70.10
39045;DHT22;52192;52.002;5.956;2022-11-20T05:08:57;-0.80;70.30
39045;DHT22;52192;52.002;5.956;2022-11-20T05:11:23;-0.80;70.40
39045;DHT22;52192;52.002;5.956;2022-11-20T05:13:51;-0.80;70.40
39045;DHT22;52192;52.002;5.956;2022-11-20T05:16:19;-0.80;70.20
39045;DHT22;52192;52.002;5.956;2022-11-20T05:18:45;-0.80;70.10
39045;DHT22;52192;52.002;5.956;2022-11-20T05:21:12;-0.80;70.30
39045;DHT22;52192;52.002;5.956;2022-11-20T05:23:48;-0.80;70.20
39045;DHT22;52192;52.002;5.956;2022-11-20T05:26:20;-0.80;70.20
39045;DHT22;52192;52.002;5.956;2022-11-20T05:28:47;-0.90;70.20
39045;DHT22;52192;52.002;5.956;2022-11-20T05:31:15;-0.90;70.20
39045;DHT22;52192;52.002;5.956;2022-11-20T05:33:43;-0.90;70.20
39045;DHT22;52192;52.002;5.956;2022-11-20T05:36:10;-0.90;70.20
39045;DHT22;52192;52.002;5.956;2022-11-20T05:38:37;-0.90;70.30
39045;DHT22;52192;52.002;5.956;2022-11-20T05:41:07;-0.90;70.20
39045;DHT22;52192;52.002;5.956;2022-11-20T05:43:34;-0.90;70.20
39045;DHT22;52192;52.002;5.956;2022-11-20T05:46:00;-0.90;70.20
39045;DHT22;52192;52.002;5.956;2022-11-20T05:48:27;-0.90;70.10
39045;DHT22;52192;52.002;5.956;2022-11-20T05:50:53;-0.90;70.20
39045;DHT22;52192;52.002;5.956;2022-11-20T05:53:19;-1.00;70.90
39045;DHT22;52192;52.002;5.956;2022-11-20T05:55:44;-1.00;70.30
39045;DHT22;52192;52.002;5.956;2022-11-20T05:58:10;-1.00;70.20
39045;DHT22;52192;52.002;5.956;2022-11-20T06:00:36;-1.00;70.20
39045;DHT22;52192;52.002;5.956;2022-11-20T06:03:02;-1.00;70.20
39045;DHT22;52192;52.002;5.956;2022-11-20T06:05:28;-1.00;70.30
39045;DHT22;52192;52.002;5.956;2022-11-20T06:07:53;-1.00;70.30
39045;DHT22;52192;52.002;5.956;2022-11-20T06:10:19;-1.00;70.30
39045;DHT22;52192;52.002;5.956;2022-11-20T06:12:45;-1.00;70.30
39045;DHT22;52192;52.002;5.956;2022-11-20T06:15:10;-1.00;70.30
39045;DHT22;52192;52.002;5.956;2022-11-20T06:17:36;-1.00;70.20
39045;DHT22;52192;52.002;5.956;2022-11-20T06:20:02;-1.10;70.20
39045;DHT22;52192;52.002;5.956;2022-11-20T06:22:27;-1.10;70.30
39045;DHT22;52192;52.002;5.956;2022-11-20T06:24:53;-1.10;70.40
39045;DHT22;52192;52.002;5.956;2022-11-20T06:27:19;-1.10;70.40
39045;DHT22;52192;52.002;5.956;2022-11-20T06:29:44;-1.10;70.30
39045;DHT22;52192;52.002;5.956;2022-11-20T06:32:10;-1.10;70.40
39045;DHT22;52192;52.002;5.956;2022-11-20T06:34:36;-1.10;70.50
39045;DHT22;52192;52.002;5.956;2022-11-20T06:37:02;-1.10;70.50
39045;DHT22;52192;52.002;5.956;2022-11-20T06:39:27;-1.20;70.30
39045;DHT22;52192;52.002;5.956;2022-11-20T06:41:53;-1.20;70.40
39045;DHT22;52192;52.002;5.956;2022-11-20T06:44:18;-1.20;70.40
39045;DHT22;52192;52.002;5.956;2022-11-20T06:46:44;-1.20;70.50
39045;DHT22;52192;52.002;5.956;2022-11-20T06:49:10;-1.20;70.50
39045;DHT22;52192;52.002;5.956;2022-11-20T06:51:36;-1.30;70.50
39045;DHT22;52192;52.002;5.956;2022-11-20T06:54:01;-1.30;70.50
39045;DHT22;52192;52.002;5.956;2022-11-20T06:56:27;-1.30;70.50
39045;DHT22;52192;52.002;5.956;2022-11-20T06:58:53;-1.30;70.60
39045;DHT22;52192;52.002;5.956;2022-11-20T07:01:19;-1.30;70.50
39045;DHT22;52192;52.002;5.956;2022-11-20T07:03:44;-1.20;70.60
39045;DHT22;52192;52.002;5.956;2022-11-20T07:06:10;-1.20;70.60
39045;DHT22;52192;52.002;5.956;2022-11-20T07:08:36;-1.20;70.60
39045;DHT22;52192;52.002;5.956;2022-11-20T07:11:06;-1.10;70.50
39045;DHT22;52192;52.002;5.956;2022-11-20T07:13:32;-1.10;70.60
39045;DHT22;52192;52.002;5.956;2022-11-20T07:16:03;-1.10;70.60
39045;DHT22;52192;52.002;5.956;2022-11-20T07:18:29;-1.10;70.40
39045;DHT22;52192;52.002;5.956;2022-11-20T07:20:55;-1.10;70.50
39045;DHT22;52192;52.002;5.956;2022-11-20T07:23:21;-1.10;70.60
39045;DHT22;52192;52.002;5.956;2022-11-20T07:25:46;-1.10;70.70
39045;DHT22;52192;52.002;5.956;2022-11-20T07:28:12;-1.10;70.70
39045;DHT22;52192;52.002;5.956;2022-11-20T07:30:39;-1.10;70.60
39045;DHT22;52192;52.002;5.956;2022-11-20T07:33:05;-1.10;70.70
39045;DHT22;52192;52.002;5.956;2022-11-20T07:35:30;-1.00;70.80
39045;DHT22;52192;52.002;5.956;2022-11-20T07:37:56;-1.00;70.70
39045;DHT22;52192;52.002;5.956;2022-11-20T07:40:21;-1.00;70.80
39045;DHT22;52192;52.002;5.956;2022-11-20T07:42:54;-1.00;70.80
39045;DHT22;52192;52.002;5.956;2022-11-20T07:45:21;-1.00;70.90
39045;DHT22;52192;52.002;5.956;2022-11-20T07:47:47;-1.00;70.90
39045;DHT22;52192;52.002;5.956;2022-11-20T07:50:13;-0.90;71.00
39045;DHT22;52192;52.002;5.956;2022-11-20T07:52:39;-0.90;71.00
39045;DHT22;52192;52.002;5.956;2022-11-20T07:55:06;-0.90;71.00
39045;DHT22;52192;52.002;5.956;2022-11-20T07:57:32;-0.80;71.20
39045;DHT22;52192;52.002;5.956;2022-11-20T07:59:58;-0.80;71.20
39045;DHT22;52192;52.002;5.956;2022-11-20T08:02:23;-0.80;71.20
39045;DHT22;52192;52.002;5.956;2022-11-20T08:04:49;-0.70;71.10
39045;DHT22;52192;52.002;5.956;2022-11-20T08:07:14;-0.60;71.00
39045;DHT22;52192;52.002;5.956;2022-11-20T08:09:40;-0.60;71.00
39045;DHT22;52192;52.002;5.956;2022-11-20T08:12:06;-0.50;71.00
39045;DHT22;52192;52.002;5.956;2022-11-20T08:14:50;-0.40;71.20
39045;DHT22;52192;52.002;5.956;2022-11-20T08:17:16;-0.30;71.20
39045;DHT22;52192;52.002;5.956;2022-11-20T08:19:41;-0.20;71.20
39045;DHT22;52192;52.002;5.956;2022-11-20T08:22:07;-0.20;71.20
39045;DHT22;52192;52.002;5.956;2022-11-20T08:24:32;-0.10;71.10
39045;DHT22;52192;52.002;5.956;2022-11-20T08:26:59;0.00;71.00
39045;DHT22;52192;52.002;5.956;2022-11-20T08:29:26;0.10;71.10
39045;DHT22;52192;52.002;5.956;2022-11-20T08:31:52;0.10;71.10
39045;DHT22;52192;52.002;5.956;2022-11-20T08:34:17;0.20;71.20
39045;DHT22;52192;52.002;5.956;2022-11-20T08:36:43;0.30;71.30
39045;DHT22;52192;52.002;5.956;2022-11-20T08:39:12;0.30;71.40
39045;DHT22;52192;52.002;5.956;2022-11-20T08:41:38;0.40;71.60
39045;DHT22;52192;52.002;5.956;2022-11-20T08:44:06;0.50;71.70
39045;DHT22;52192;52.002;5.956;2022-11-20T08:46:37;0.60;71.80
39045;DHT22;52192;52.002;5.956;2022-11-20T08:49:09;0.60;71.90
39045;DHT22;52192;52.002;5.956;2022-11-20T08:51:35;0.70;71.90
39045;DHT22;52192;52.002;5.956;2022-11-20T08:54:01;0.80;72.00
39045;DHT22;52192;52.002;5.956;2022-11-20T08:56:27;0.80;72.00
39045;DHT22;52192;52.002;5.956;2022-11-20T08:58:52;0.90;72.10
39045;DHT22;52192;52.002;5.956;2022-11-20T09:01:19;1.00;71.90
39045;DHT22;52192;52.002;5.956;2022-11-20T09:03:45;1.00;71.90
39045;DHT22;52192;52.002;5.956;2022-11-20T09:06:11;1.10;71.90
39045;DHT22;52192;52.002;5.956;2022-11-20T09:08:37;1.20;71.80
39045;DHT22;52192;52.002;5.956;2022-11-20T09:11:03;1.30;71.70
39045;DHT22;52192;52.002;5.956;2022-11-20T09:13:29;1.30;71.70
39045;DHT22;52192;52.002;5.956;2022-11-20T09:16:06;1.40;71.70
39045;DHT22;52192;52.002;5.956;2022-11-20T09:18:33;1.50;71.80
39045;DHT22;52192;52.002;5.956;2022-11-20T09:21:03;1.50;71.80
39045;DHT22;52192;52.002;5.956;2022-11-20T09:23:35;1.60;72.00
39045;DHT22;52192;52.002;5.956;2022-11-20T09:26:05;1.60;72.00
39045;DHT22;52192;52.002;5.956;2022-11-20T09:28:31;1.60;72.00
39045;DHT22;52192;52.002;5.956;2022-11-20T09:30:57;1.60;72.20
39045;DHT22;52192;52.002;5.956;2022-11-20T09:33:23;1.70;72.80
39045;DHT22;52192;52.002;5.956;2022-11-20T09:35:49;1.70;72.30
39045;DHT22;52192;52.002;5.956;2022-11-20T09:38:14;1.70;72.20
39045;DHT22;52192;52.002;5.956;2022-11-20T09:41:03;1.80;72.30
39045;DHT22;52192;52.002;5.956;2022-11-20T09:47:18;1.90;72.20
39045;DHT22;52192;52.002;5.956;2022-11-20T09:50:25;1.90;72.40
39045;DHT22;52192;52.002;5.956;2022-11-20T09:53:26;1.90;72.30
39045;DHT22;52192;52.002;5.956;2022-11-20T09:55:55;1.90;72.50
39045;DHT22;52192;52.002;5.956;2022-11-20T09:58:31;1.90;72.70
39045;DHT22;52192;52.002;5.956;2022-11-20T10:01:14;2.00;72.60
39045;DHT22;52192;52.002;5.956;2022-11-20T10:06:39;2.00;72.80
39045;DHT22;52192;52.002;5.956;2022-11-20T10:17:21;2.20;72.80
39045;DHT22;52192;52.002;5.956;2022-11-20T10:28:52;2.60;72.40
39045;DHT22;52192;52.002;5.956;2022-11-20T10:31:40;2.70;72.30
39045;DHT22;52192;52.002;5.956;2022-11-20T10:37:05;2.90;72.10
39045;DHT22;52192;52.002;5.956;2022-11-20T10:39:42;3.00;72.10
39045;DHT22;52192;52.002;5.956;2022-11-20T10:42:15;3.30;72.10
39045;DHT22;52192;52.002;5.956;2022-11-20T10:44:47;3.80;71.50
39045;DHT22;52192;52.002;5.956;2022-11-20T10:47:46;4.20;70.60
39045;DHT22;52192;52.002;5.956;2022-11-20T10:50:16;4.70;69.60
39045;DHT22;52192;52.002;5.956;2022-11-20T10:53:04;4.80;68.80
39045;DHT22;52192;52.002;5.956;2022-11-20T10:55:39;4.90;68.70
39045;DHT22;52192;52.002;5.956;2022-11-20T11:01:25;5.00;68.70
39045;DHT22;52192;52.002;5.956;2022-11-20T11:03:53;5.50;69.10
39045;DHT22;52192;52.002;5.956;2022-11-20T11:06:34;5.80;67.40
39045;DHT22;52192;52.002;5.956;2022-11-20T11:09:09;5.70;67.20
39045;DHT22;52192;52.002;5.956;2022-11-20T11:11:38;5.40;67.70
39045;DHT22;52192;52.002;5.956;2022-11-20T11:16:31;4.80;69.10
39045;DHT22;52192;52.002;5.956;2022-11-20T11:19:13;4.60;69.70
39045;DHT22;52192;52.002;5.956;2022-11-20T11:21:50;4.40;70.20
39045;DHT22;52192;52.002;5.956;2022-11-20T11:26:56;4.10;71.10
39045;DHT22;52192;52.002;5.956;2022-11-20T11:29:22;4.10;71.40
39045;DHT22;52192;52.002;5.956;2022-11-20T11:31:49;4.10;71.70
39045;DHT22;52192;52.002;5.956;2022-11-20T11:34:16;4.10;71.80
39045;DHT22;52192;52.002;5.956;2022-11-20T11:36:55;4.10;71.80
39045;DHT22;52192;52.002;5.956;2022-11-20T11:39:21;4.10;71.80
39045;DHT22;52192;52.002;5.956;2022-11-20T11:41:48;4.10;71.80
39045;DHT22;52192;52.002;5.956;2022-11-20T11:44:23;4.20;71.80
39045;DHT22;52192;52.002;5.956;2022-11-20T11:47:15;4.20;71.90
39045;DHT22;52192;52.002;5.956;2022-11-20T11:49:44;4.20;72.00
39045;DHT22;52192;52.002;5.956;2022-11-20T11:52:18;4.30;72.00
39045;DHT22;52192;52.002;5.956;2022-11-20T11:54:53;4.40;71.60
39045;DHT22;52192;52.002;5.956;2022-11-20T12:00:10;4.40;71.90
39045;DHT22;52192;52.002;5.956;2022-11-20T12:15:53;4.10;73.10
39045;DHT22;52192;52.002;5.956;2022-11-20T12:18:20;4.00;73.20
39045;DHT22;52192;52.002;5.956;2022-11-20T12:38:06;3.90;73.80
39045;DHT22;52192;52.002;5.956;2022-11-20T12:40:54;3.90;74.00
39045;DHT22;52192;52.002;5.956;2022-11-20T12:43:51;3.90;74.00
39045;DHT22;52192;52.002;5.956;2022-11-20T12:50:19;4.00;74.40
39045;DHT22;52192;52.002;5.956;2022-11-20T12:53:02;4.10;74.50
39045;DHT22;52192;52.002;5.956;2022-11-20T12:55:46;4.10;74.70
39045;DHT22;52192;52.002;5.956;2022-11-20T12:58:34;4.10;74.70
39045;DHT22;52192;52.002;5.956;2022-11-20T13:06:40;4.30;75.00
39045;DHT22;52192;52.002;5.956;2022-11-20T13:09:12;4.30;75.30
39045;DHT22;52192;52.002;5.956;2022-11-20T13:12:13;4.30;75.30
39045;DHT22;52192;52.002;5.956;2022-11-20T13:14:52;4.40;75.60
39045;DHT22;52192;52.002;5.956;2022-11-20T13:17:21;4.30;75.60
39045;DHT22;52192;52.002;5.956;2022-11-20T13:19:54;4.30;75.70
39045;DHT22;52192;52.002;5.956;2022-11-20T13:22:28;4.30;75.70
39045;DHT22;52192;52.002;5.956;2022-11-20T13:24:54;4.30;75.70
39045;DHT22;52192;52.002;5.956;2022-11-20T13:27:21;4.30;75.90
39045;DHT22;52192;52.002;5.956;2022-11-20T13:30:14;4.30;75.90
39045;DHT22;52192;52.002;5.956;2022-11-20T13:33:02;4.30;75.90
39045;DHT22;52192;52.002;5.956;2022-11-20T13:35:35;4.40;75.90
39045;DHT22;52192;52.002;5.956;2022-11-20T13:40:29;4.40;76.10
39045;DHT22;52192;52.002;5.956;2022-11-20T13:43:26;4.40;76.20
39045;DHT22;52192;52.002;5.956;2022-11-20T13:46:01;4.40;76.20
39045;DHT22;52192;52.002;5.956;2022-11-20T13:48:31;4.40;76.60
39045;DHT22;52192;52.002;5.956;2022-11-20T13:59:05;4.40;77.10
39045;DHT22;52192;52.002;5.956;2022-11-20T14:01:34;4.40;77.50
39045;DHT22;52192;52.002;5.956;2022-11-20T14:04:07;4.40;77.30
39045;DHT22;52192;52.002;5.956;2022-11-20T14:06:45;4.40;77.30
39045;DHT22;52192;52.002;5.956;2022-11-20T14:09:29;4.40;77.20
39045;DHT22;52192;52.002;5.956;2022-11-20T14:11:55;4.40;77.10
39045;DHT22;52192;52.002;5.956;2022-11-20T14:14:26;4.40;77.30
39045;DHT22;52192;52.002;5.956;2022-11-20T14:17:04;4.40;77.40
39045;DHT22;52192;52.002;5.956;2022-11-20T14:19:30;4.50;77.40
39045;DHT22;52192;52.002;5.956;2022-11-20T14:24:40;4.40;77.70
39045;DHT22;52192;52.002;5.956;2022-11-20T14:27:12;4.40;78.70
39045;DHT22;52192;52.002;5.956;2022-11-20T14:29:39;4.40;78.10
39045;DHT22;52192;52.002;5.956;2022-11-20T14:32:09;4.40;78.20
39045;DHT22;52192;52.002;5.956;2022-11-20T14:34:40;4.40;78.20
39045;DHT22;52192;52.002;5.956;2022-11-20T14:37:12;4.40;78.30
39045;DHT22;52192;52.002;5.956;2022-11-20T14:39:47;4.40;78.40
39045;DHT22;52192;52.002;5.956;2022-11-20T14:42:22;4.40;78.30
39045;DHT22;52192;52.002;5.956;2022-11-20T14:44:49;4.40;78.40
39045;DHT22;52192;52.002;5.956;2022-11-20T14:47:19;4.40;78.40
39045;DHT22;52192;52.002;5.956;2022-11-20T14:49:45;4.40;78.50
39045;DHT22;52192;52.002;5.956;2022-11-20T14:52:20;4.40;78.50
39045;DHT22;52192;52.002;5.956;2022-11-20T14:57:28;4.50;78.70
39045;DHT22;52192;52.002;5.956;2022-11-20T15:02:42;4.50;78.70
39045;DHT22;52192;52.002;5.956;2022-11-20T15:05:09;4.50;78.70
39045;DHT22;52192;52.002;5.956;2022-11-20T15:07:40;4.50;78.60
39045;DHT22;52192;52.002;5.956;2022-11-20T15:10:11;4.50;78.50
39045;DHT22;52192;52.002;5.956;2022-11-20T15:15:27;4.60;78.70
39045;DHT22;52192;52.002;5.956;2022-11-20T15:17:55;4.50;78.60
39045;DHT22;52192;52.002;5.956;2022-11-20T15:20:26;4.60;78.70
39045;DHT22;52192;52.002;5.956;2022-11-20T15:22:53;4.60;78.70
39045;DHT22;52192;52.002;5.956;2022-11-20T15:25:19;4.60;78.70
39045;DHT22;52192;52.002;5.956;2022-11-20T15:27:45;4.60;78.90
39045;DHT22;52192;52.002;5.956;2022-11-20T15:30:17;4.60;78.90
39045;DHT22;52192;52.002;5.956;2022-11-20T15:32:44;4.60;79.00
39045;DHT22;52192;52.002;5.956;2022-11-20T15:35:10;4.70;79.00
39045;DHT22;52192;52.002;5.956;2022-11-20T15:37:37;4.70;79.00
39045;DHT22;52192;52.002;5.956;2022-11-20T15:40:04;4.70;79.10
39045;DHT22;52192;52.002;5.956;2022-11-20T15:42:30;4.70;79.10
39045;DHT22;52192;52.002;5.956;2022-11-20T15:44:56;4.70;79.20
39045;DHT22;52192;52.002;5.956;2022-11-20T15:47:25;4.70;79.30
39045;DHT22;52192;52.002;5.956;2022-11-20T15:49:52;4.70;79.40
39045;DHT22;52192;52.002;5.956;2022-11-20T15:52:18;4.70;79.50
39045;DHT22;52192;52.002;5.956;2022-11-20T15:54:44;4.70;79.60
39045;DHT22;52192;52.002;5.956;2022-11-20T15:57:09;4.80;79.50
39045;DHT22;52192;52.002;5.956;2022-11-20T15:59:35;4.80;79.50
39045;DHT22;52192;52.002;5.956;2022-11-20T16:02:10;4.80;79.40
39045;DHT22;52192;52.002;5.956;2022-11-20T16:04:36;4.80;79.30
39045;DHT22;52192;52.002;5.956;2022-11-20T16:07:02;4.80;79.50
39045;DHT22;52192;52.002;5.956;2022-11-20T16:09:27;4.80;79.50
39045;DHT22;52192;52.002;5.956;2022-11-20T16:11:53;4.80;79.70
39045;DHT22;52192;52.002;5.956;2022-11-20T16:14:19;4.80;79.70
39045;DHT22;52192;52.002;5.956;2022-11-20T16:17:03;4.80;79.80
39045;DHT22;52192;52.002;5.956;2022-11-20T16:19:29;4.80;79.80
39045;DHT22;52192;52.002;5.956;2022-11-20T16:21:54;4.80;79.80
39045;DHT22;52192;52.002;5.956;2022-11-20T16:24:22;4.80;79.80
39045;DHT22;52192;52.002;5.956;2022-11-20T16:26:48;4.90;79.80
39045;DHT22;52192;52.002;5.956;2022-11-20T16:29:13;4.80;79.80
39045;DHT22;52192;52.002;5.956;2022-11-20T16:31:39;4.80;80.00
39045;DHT22;52192;52.002;5.956;2022-11-20T16:34:06;4.80;80.00
39045;DHT22;52192;52.002;5.956;2022-11-20T16:36:32;4.80;80.00
39045;DHT22;52192;52.002;5.956;2022-11-20T16:39:00;4.80;80.00
39045;DHT22;52192;52.002;5.956;2022-11-20T16:41:29;4.80;80.00
39045;DHT22;52192;52.002;5.956;2022-11-20T16:43:56;4.80;80.00
39045;DHT22;52192;52.002;5.956;2022-11-20T16:46:24;4.80;80.00
39045;DHT22;52192;52.002;5.956;2022-11-20T16:48:54;4.80;79.90
39045;DHT22;52192;52.002;5.956;2022-11-20T16:51:20;4.80;79.90
39045;DHT22;52192;52.002;5.956;2022-11-20T16:53:46;4.80;79.90
39045;DHT22;52192;52.002;5.956;2022-11-20T16:56:17;4.80;79.80
39045;DHT22;52192;52.002;5.956;2022-11-20T16:58:45;4.80;80.00
39045;DHT22;52192;52.002;5.956;2022-11-20T17:01:13;4.80;80.10
39045;DHT22;52192;52.002;5.956;2022-11-20T17:03:40;4.80;80.10
39045;DHT22;52192;52.002;5.956;2022-11-20T17:06:17;4.80;80.10
39045;DHT22;52192;52.002;5.956;2022-11-20T17:08:44;4.90;80.00
39045;DHT22;52192;52.002;5.956;2022-11-20T17:11:12;4.90;80.10
39045;DHT22;52192;52.002;5.956;2022-11-20T17:13:38;4.90;80.20
39045;DHT22;52192;52.002;5.956;2022-11-20T17:16:06;4.90;80.20
39045;DHT22;52192;52.002;5.956;2022-11-20T17:18:32;4.90;80.10
39045;DHT22;52192;52.002;5.956;2022-11-20T17:20:58;4.90;80.10
39045;DHT22;52192;52.002;5.956;2022-11-20T17:23:36;4.90;80.20
39045;DHT22;52192;52.002;5.956;2022-11-20T17:26:11;4.90;80.30
39045;DHT22;52192;52.002;5.956;2022-11-20T17:28:39;4.90;80.20
39045;DHT22;52192;52.002;5.956;2022-11-20T17:31:10;4.90;80.20
39045;DHT22;52192;52.002;5.956;2022-11-20T17:33:38;5.00;80.20
39045;DHT22;52192;52.002;5.956;2022-11-20T17:36:05;5.00;80.10